createdAt,value
2019-04-26T00:02:05.544Z,9.53
2019-04-26T00:04:33.755Z,10.20
2019-04-26T00:07:01.349Z,10.27
2019-04-26T00:09:36.381Z,10.97
2019-04-26T00:12:23.599Z,12.53
2019-04-26T00:15:10.102Z,11.53
2019-04-26T00:17:43.831Z,12.20
2019-04-26T00:20:12.917Z,12.47
2019-04-26T00:22:40.896Z,12.83
2019-04-26T00:25:08.399Z,14.20
2019-04-26T00:27:36.187Z,14.53
2019-04-26T00:30:04.675Z,14.93
2019-04-26T00:32:32.611Z,13.00
2019-04-26T00:35:00.213Z,13.17
2019-04-26T00:37:28.241Z,12.97
2019-04-26T00:39:56.107Z,13.37
2019-04-26T00:42:24.220Z,14.13
2019-04-26T00:44:52.481Z,13.87
2019-04-26T00:47:21.922Z,14.87
2019-04-26T00:49:50.205Z,15.10
2019-04-26T00:52:18.274Z,16.10
2019-04-26T00:54:47.559Z,15.40
2019-04-26T00:57:16.532Z,15.13
2019-04-26T00:59:44.350Z,14.87
2019-04-26T01:02:18.578Z,14.03
2019-04-26T01:04:47.585Z,15.13
2019-04-26T01:07:15.700Z,13.60
2019-04-26T01:09:43.365Z,15.03
2019-04-26T01:12:11.293Z,14.80
2019-04-26T01:14:38.927Z,14.93
2019-04-26T01:17:06.902Z,14.97
2019-04-26T01:19:36.708Z,14.40
2019-04-26T01:22:08.523Z,14.87
2019-04-26T01:24:38.955Z,14.80
2019-04-26T01:27:07.749Z,15.40
2019-04-26T01:29:36.901Z,15.10
2019-04-26T01:32:10.844Z,15.10
2019-04-26T01:34:41.176Z,14.83
2019-04-26T01:37:09.676Z,15.00
2019-04-26T01:39:42.046Z,14.67
2019-04-26T01:42:16.755Z,15.37
2019-04-26T01:44:53.159Z,15.00
2019-04-26T01:47:22.235Z,15.40
2019-04-26T01:49:50.784Z,15.33
2019-04-26T01:52:19.076Z,14.97
2019-04-26T01:54:46.794Z,15.00
2019-04-26T01:57:15.449Z,15.23
2019-04-26T01:59:48.654Z,14.50
2019-04-26T02:02:32.651Z,14.30
2019-04-26T02:05:03.043Z,13.53
2019-04-26T02:07:40.761Z,13.40
2019-04-26T02:10:12.294Z,12.87
2019-04-26T02:12:43.702Z,14.20
2019-04-26T02:15:12.281Z,14.33
2019-04-26T02:17:41.626Z,12.83
2019-04-26T02:20:10.977Z,12.90
2019-04-26T02:22:50.164Z,12.00
2019-04-26T02:25:18.480Z,12.17
2019-04-26T02:27:59.128Z,13.80
2019-04-26T02:30:28.745Z,13.20
2019-04-26T02:32:56.880Z,14.87
2019-04-26T02:35:25.585Z,14.70
2019-04-26T02:37:54.247Z,15.30
2019-04-26T02:40:22.305Z,14.67
2019-04-26T02:42:50.401Z,15.70
2019-04-26T02:46:12.344Z,15.30
2019-04-26T02:49:33.048Z,16.63
2019-04-26T02:52:25.300Z,15.83
2019-04-26T02:55:10.214Z,17.17
2019-04-26T02:57:44.474Z,16.83
2019-04-26T03:00:13.329Z,16.27
2019-04-26T03:02:43.349Z,15.87
2019-04-26T03:05:12.517Z,16.27
2019-04-26T03:07:54.419Z,14.63
2019-04-26T03:10:31.821Z,15.10
2019-04-26T03:13:02.212Z,14.40
2019-04-26T03:15:51.394Z,14.40
2019-04-26T03:18:38.483Z,14.87
2019-04-26T03:21:16.521Z,13.47
2019-04-26T03:24:22.209Z,14.57
2019-04-26T03:27:16.359Z,14.93
2019-04-26T03:30:18.708Z,14.03
2019-04-26T03:33:52.425Z,12.83
2019-04-26T03:36:47.199Z,12.70
2019-04-26T03:39:34.247Z,14.50
2019-04-26T03:42:33.132Z,14.63
2019-04-26T03:45:25.466Z,13.17
2019-04-26T03:48:26.443Z,12.57
2019-04-26T03:51:04.873Z,12.53
2019-04-26T03:53:51.183Z,12.80
2019-04-26T03:57:13.795Z,12.37
2019-04-26T04:00:22.934Z,11.47
2019-04-26T04:03:37.847Z,10.83
2019-04-26T04:06:08.619Z,12.13
2019-04-26T04:08:48.209Z,10.90
2019-04-26T04:11:21.201Z,11.70
2019-04-26T04:13:55.593Z,12.47
2019-04-26T04:16:41.377Z,11.80
2019-04-26T04:19:33.929Z,10.30
2019-04-26T04:22:06.271Z,10.63
2019-04-26T04:24:45.055Z,9.93
2019-04-26T04:27:35.254Z,9.30
2019-04-26T04:30:15.047Z,10.57
2019-04-26T04:33:21.777Z,10.30
2019-04-26T04:35:54.352Z,10.67
2019-04-26T04:38:48.410Z,9.30
2019-04-26T04:41:36.416Z,8.57
2019-04-26T04:44:24.934Z,8.80
2019-04-26T04:47:25.842Z,9.23
2019-04-26T04:50:11.031Z,9.97
2019-04-26T04:53:06.131Z,9.80
2019-04-26T04:55:47.889Z,9.63
2019-04-26T04:58:19.697Z,9.70
2019-04-26T05:01:28.334Z,9.17
2019-04-26T05:04:05.623Z,9.17
2019-04-26T05:06:53.247Z,8.90
2019-04-26T05:09:31.159Z,9.07
2019-04-26T05:12:13.851Z,10.63
2019-04-26T05:15:09.759Z,9.90
2019-04-26T05:18:00.665Z,9.47
2019-04-26T05:20:45.610Z,9.23
2019-04-26T05:23:47.509Z,9.80
2019-04-26T05:27:01.976Z,9.93
2019-04-26T05:30:09.019Z,9.43
2019-04-26T05:33:10.449Z,8.90
2019-04-26T05:36:14.589Z,10.47
2019-04-26T05:38:51.422Z,8.53
2019-04-26T05:41:38.571Z,9.53
2019-04-26T05:44:34.555Z,8.73
2019-04-26T05:47:38.276Z,8.60
2019-04-26T05:51:23.119Z,8.53
2019-04-26T05:54:42.667Z,7.70
2019-04-26T05:57:42.451Z,8.90
2019-04-26T06:00:55.743Z,8.33
2019-04-26T06:04:17.801Z,8.70
2019-04-26T06:07:01.582Z,7.17
2019-04-26T06:10:32.969Z,7.80
2019-04-26T06:13:34.941Z,7.03
2019-04-26T06:16:40.349Z,7.43
2019-04-26T06:19:38.424Z,8.23
2019-04-26T06:22:27.006Z,7.83
2019-04-26T06:25:26.984Z,9.20
2019-04-26T06:28:02.882Z,9.20
2019-04-26T06:31:01.389Z,8.13
2019-04-26T06:33:48.646Z,7.93
2019-04-26T06:36:27.483Z,8.23
2019-04-26T06:39:27.893Z,8.27
2019-04-26T06:43:00.566Z,7.53
2019-04-26T06:46:10.263Z,12.57
2019-04-26T06:49:05.484Z,6.97
2019-04-26T06:51:39.767Z,13.43
2019-04-26T06:54:19.063Z,5.65
2019-04-26T06:57:37.245Z,8.43
2019-04-26T07:00:16.045Z,6.87
2019-04-26T07:03:13.765Z,5.75
2019-04-26T07:05:44.933Z,6.00
2019-04-26T07:08:39.493Z,5.53
2019-04-26T07:12:21.341Z,4.93
2019-04-26T07:15:27.932Z,4.90
2019-04-26T07:18:04.443Z,4.00
2019-04-26T07:20:48.691Z,4.28
2019-04-26T07:24:13.446Z,4.20
2019-04-26T07:27:20.304Z,3.98
2019-04-26T07:30:12.207Z,3.98
2019-04-26T07:33:46.318Z,3.65
2019-04-26T07:36:54.093Z,3.90
2019-04-26T07:39:47.015Z,3.80
2019-04-26T07:42:47.685Z,3.20
2019-04-26T07:45:40.392Z,3.98
2019-04-26T07:48:33.484Z,3.90
2019-04-26T07:51:44.063Z,4.67
2019-04-26T07:55:04.898Z,4.72
2019-04-26T07:58:22.507Z,4.28
2019-04-26T08:01:14.051Z,3.70
2019-04-26T08:03:54.198Z,3.97
2019-04-26T08:06:56.370Z,3.70
2019-04-26T08:09:27.564Z,4.35
2019-04-26T08:12:06.234Z,2.98
2019-04-26T08:14:48.894Z,3.42
2019-04-26T08:17:51.636Z,3.87
2019-04-26T08:20:43.461Z,3.08
2019-04-26T08:23:28.163Z,4.17
2019-04-26T08:25:46.638Z,3.47
2019-04-26T08:28:17.936Z,3.83
2019-04-26T08:30:48.284Z,3.47
2019-04-26T08:33:23.109Z,3.20
2019-04-26T08:35:53.346Z,3.62
2019-04-26T08:38:23.230Z,3.80
2019-04-26T08:40:52.171Z,3.65
2019-04-26T08:43:41.424Z,3.37
2019-04-26T08:46:24.490Z,3.00
2019-04-26T08:49:02.103Z,3.45
2019-04-26T08:51:33.701Z,3.40
2019-04-26T08:54:05.564Z,4.28
2019-04-26T08:56:37.072Z,3.47
2019-04-26T08:59:16.988Z,2.92
2019-04-26T09:01:52.982Z,3.77
2019-04-26T09:04:39.978Z,3.00
2019-04-26T09:07:14.389Z,3.05
2019-04-26T09:09:56.677Z,2.30
2019-04-26T09:12:23.237Z,3.50
2019-04-26T09:14:54.770Z,3.90
2019-04-26T09:17:22.268Z,3.08
2019-04-26T09:19:50.481Z,2.70
2019-04-26T09:22:26.552Z,3.67
2019-04-26T09:25:12.250Z,2.42
2019-04-26T09:27:58.922Z,3.45
2019-04-26T09:30:34.102Z,3.10
2019-04-26T09:33:12.965Z,2.37
2019-04-26T09:35:41.860Z,2.60
2019-04-26T09:38:09.431Z,3.05
2019-04-26T09:40:37.585Z,2.98
2019-04-26T09:43:24.342Z,2.85
2019-04-26T09:46:10.172Z,2.90
2019-04-26T09:48:54.008Z,2.35
2019-04-26T09:51:21.914Z,2.33
2019-04-26T09:53:49.523Z,2.22
2019-04-26T09:56:17.142Z,1.92
2019-04-26T09:58:45.108Z,2.20
2019-04-26T10:01:12.636Z,2.08
2019-04-26T10:03:40.251Z,2.08
2019-04-26T10:06:08.363Z,1.37
2019-04-26T10:08:36.070Z,1.45
2019-04-26T10:11:05.738Z,1.90
2019-04-26T10:13:39.671Z,1.90
2019-04-26T10:16:23.826Z,1.82
2019-04-26T10:18:58.359Z,2.62
2019-04-26T10:21:25.883Z,2.22
2019-04-26T10:23:53.503Z,2.20
2019-04-26T10:26:23.151Z,2.10
2019-04-26T10:28:52.149Z,2.47
2019-04-26T10:31:19.849Z,2.12
2019-04-26T10:33:47.491Z,2.10
2019-04-26T10:36:47.395Z,2.22
2019-04-26T10:39:17.033Z,1.07
2019-04-26T10:41:44.605Z,1.65
2019-04-26T10:44:12.463Z,1.30
2019-04-26T10:46:40.157Z,2.10
2019-04-26T10:49:36.267Z,1.45
2019-04-26T10:52:06.173Z,2.02
2019-04-26T10:54:36.887Z,1.20
2019-04-26T10:57:11.840Z,1.12
2019-04-26T10:59:45.573Z,1.57
2019-04-26T11:02:17.179Z,1.52
2019-04-26T11:04:44.789Z,1.80
2019-04-26T11:07:12.412Z,1.47
2019-04-26T11:09:40.129Z,1.20
2019-04-26T11:12:11.813Z,0.90
2019-04-26T11:14:40.115Z,0.90
2019-04-26T11:17:11.612Z,1.10
2019-04-26T11:19:37.368Z,1.35
2019-04-26T11:22:05.077Z,1.17
2019-04-26T11:24:32.899Z,1.05
2019-04-26T11:27:00.821Z,1.50
2019-04-26T11:29:28.735Z,0.40
2019-04-26T11:31:58.422Z,0.53
2019-04-26T11:34:27.786Z,0.90
2019-04-26T11:36:55.744Z,0.40
2019-04-26T11:39:23.807Z,0.50
2019-04-26T11:41:52.489Z,0.50
2019-04-26T11:44:23.423Z,0.47
2019-04-26T11:46:49.477Z,0.25
2019-04-26T11:49:17.693Z,0.60
2019-04-26T11:51:45.345Z,1.25
2019-04-26T11:54:13.128Z,1.35
2019-04-26T11:56:41.213Z,0.70
2019-04-26T11:59:09.116Z,0.80
2019-04-26T12:01:40.494Z,0.98
2019-04-26T12:04:22.587Z,1.10
2019-04-26T12:06:57.476Z,1.00
2019-04-26T12:09:39.634Z,1.00
2019-04-26T12:12:09.330Z,1.00
2019-04-26T12:14:36.596Z,0.95
2019-04-26T12:17:04.683Z,0.80
2019-04-26T12:19:32.900Z,1.20
2019-04-26T12:22:04.292Z,1.07
2019-04-26T12:24:34.309Z,0.60
2019-04-26T12:26:59.727Z,0.85
2019-04-26T12:29:27.631Z,1.00
2019-04-26T12:31:57.098Z,0.80
2019-04-26T12:34:25.271Z,0.72
2019-04-26T12:36:53.290Z,1.02
2019-04-26T12:39:21.405Z,0.90
2019-04-26T12:41:48.880Z,0.70
2019-04-26T12:44:16.505Z,0.70
2019-04-26T12:47:03.441Z,0.80
2019-04-26T12:49:32.112Z,0.60
2019-04-26T12:52:00.017Z,0.62
2019-04-26T12:54:28.295Z,0.60
2019-04-26T12:56:56.263Z,0.60
2019-04-26T12:59:26.597Z,0.47
2019-04-26T13:02:05.080Z,0.62
2019-04-26T13:04:35.513Z,0.70
2019-04-26T13:07:07.091Z,0.65
2019-04-26T13:09:34.383Z,0.60
2019-04-26T13:12:14.785Z,0.40
2019-04-26T13:15:05.673Z,0.53
2019-04-26T13:17:38.987Z,0.82
2019-04-26T13:20:07.569Z,0.80
2019-04-26T13:22:45.290Z,0.93
2019-04-26T13:25:15.480Z,0.50
2019-04-26T13:27:36.810Z,0.70
2019-04-26T13:30:06.772Z,0.60
2019-04-26T13:32:34.870Z,0.60
2019-04-26T13:35:02.486Z,0.40
2019-04-26T13:37:32.229Z,0.50
2019-04-26T13:40:00.072Z,0.40
2019-04-26T13:42:27.695Z,0.68
2019-04-26T13:45:10.927Z,0.50
2019-04-26T13:47:56.816Z,0.60
2019-04-26T13:50:40.678Z,0.60
2019-04-26T13:53:08.583Z,0.30
2019-04-26T13:55:36.426Z,0.40
2019-04-26T13:58:04.269Z,0.50
2019-04-26T14:00:32.417Z,0.45
2019-04-26T14:02:59.963Z,0.30
2019-04-26T14:05:27.584Z,0.40
2019-04-26T14:07:55.506Z,0.30
2019-04-26T14:10:23.670Z,0.50
2019-04-26T14:12:51.387Z,0.42
2019-04-26T14:15:19.641Z,0.30
2019-04-26T14:17:47.585Z,0.40
2019-04-26T14:20:15.493Z,0.33
2019-04-26T14:22:51.278Z,0.30
2019-04-26T14:25:21.252Z,0.30
2019-04-26T14:27:51.542Z,0.47
2019-04-26T14:30:19.832Z,0.50
2019-04-26T14:32:47.453Z,0.40
2019-04-26T14:35:17.088Z,0.30
2019-04-26T14:37:45.523Z,0.50
2019-04-26T14:40:17.582Z,0.50
2019-04-26T14:42:47.287Z,0.40
2019-04-26T14:45:23.417Z,0.20
2019-04-26T14:47:47.424Z,0.30
2019-04-26T14:50:14.505Z,0.30
2019-04-26T14:52:42.702Z,0.33
2019-04-26T14:55:10.287Z,0.30
2019-04-26T14:57:37.868Z,0.30
2019-04-26T15:00:07.625Z,0.20
2019-04-26T15:02:56.280Z,0.28
2019-04-26T15:05:58.594Z,0.40
2019-04-26T15:08:26.223Z,0.30
2019-04-26T15:11:00.764Z,0.40
2019-04-26T15:13:23.659Z,0.57
2019-04-26T15:15:52.565Z,0.47
2019-04-26T15:18:20.396Z,0.50
2019-04-26T15:20:48.047Z,0.40
2019-04-26T15:23:19.489Z,0.40
2019-04-26T15:25:48.497Z,0.40
2019-04-26T15:28:14.855Z,0.30
2019-04-26T15:30:46.673Z,0.30
2019-04-26T15:33:12.750Z,0.30
2019-04-26T15:35:42.219Z,0.40
2019-04-26T15:38:10.055Z,0.40
2019-04-26T15:41:05.475Z,0.40
2019-04-26T15:43:42.790Z,0.40
2019-04-26T15:46:30.121Z,0.65
2019-04-26T15:49:36.883Z,0.30
2019-04-26T15:52:04.877Z,0.37
2019-04-26T15:54:32.520Z,0.10
2019-04-26T15:57:02.012Z,0.40
2019-04-26T15:59:32.603Z,0.10
2019-04-26T16:02:02.277Z,0.10
2019-04-26T16:04:30.246Z,0.10
2019-04-26T16:06:58.070Z,0.20
2019-04-26T16:09:25.723Z,0.00
2019-04-26T16:11:55.243Z,0.10
2019-04-26T16:14:26.451Z,0.10
2019-04-26T16:16:52.806Z,0.10
2019-04-26T16:19:20.442Z,0.13
2019-04-26T16:21:54.241Z,0.10
2019-04-26T16:24:18.763Z,0.20
2019-04-26T16:26:50.995Z,0.10
2019-04-26T16:29:42.504Z,0.10
2019-04-26T16:32:28.645Z,0.10
2019-04-26T16:34:56.350Z,0.10
2019-04-26T16:37:24.003Z,0.10
2019-04-26T16:39:51.716Z,0.20
2019-04-26T16:42:19.546Z,0.10
2019-04-26T16:44:48.174Z,0.10
2019-04-26T16:47:15.806Z,0.25
2019-04-26T16:49:46.485Z,0.10
2019-04-26T16:52:14.033Z,0.10
2019-04-26T16:54:42.417Z,0.70
2019-04-26T16:57:11.602Z,0.60
2019-04-26T16:59:46.825Z,0.50
2019-04-26T17:02:10.647Z,0.40
2019-04-26T17:04:38.250Z,0.40
2019-04-26T17:07:06.157Z,0.30
2019-04-26T17:09:54.365Z,0.20
2019-04-26T17:12:05.133Z,0.30
2019-04-26T17:14:34.171Z,0.42
2019-04-26T17:17:03.215Z,0.30
2019-04-26T17:19:35.851Z,0.20
2019-04-26T17:22:23.337Z,0.20
2019-04-26T17:25:08.623Z,0.40
2019-04-26T17:27:42.647Z,0.40
2019-04-26T17:30:09.009Z,0.40
2019-04-26T17:32:36.913Z,0.40
2019-04-26T17:35:07.437Z,0.65
2019-04-26T17:37:34.723Z,0.50
2019-04-26T17:40:02.365Z,0.68
2019-04-26T17:42:35.864Z,0.40
2019-04-26T17:45:04.366Z,0.40
2019-04-26T17:47:34.671Z,0.40
2019-04-26T17:50:02.774Z,0.30
2019-04-26T17:52:29.805Z,0.42
2019-04-26T17:54:57.510Z,0.40
2019-04-26T17:57:34.748Z,0.50
2019-04-26T18:00:07.218Z,0.40
2019-04-26T18:02:40.231Z,0.40
2019-04-26T18:05:00.610Z,0.70
2019-04-26T18:07:39.852Z,0.50
2019-04-26T18:09:57.038Z,0.80
2019-04-26T18:12:24.911Z,0.70
2019-04-26T18:14:52.605Z,0.90
2019-04-26T18:17:38.662Z,1.03
2019-04-26T18:20:27.633Z,0.62
2019-04-26T18:23:03.485Z,1.00
2019-04-26T18:25:32.498Z,0.60
2019-04-26T18:28:00.146Z,0.60
2019-04-26T18:30:28.278Z,0.80
2019-04-26T18:32:55.922Z,1.00
2019-04-26T18:35:23.913Z,0.60
2019-04-26T18:37:53.710Z,0.85
2019-04-26T18:40:23.051Z,0.70
2019-04-26T18:42:50.851Z,0.77
2019-04-26T18:45:28.041Z,0.90
2019-04-26T18:47:48.198Z,0.50
2019-04-26T18:50:16.541Z,0.70
2019-04-26T18:53:14.286Z,0.70
2019-04-26T18:55:43.834Z,0.53
2019-04-26T18:58:11.507Z,0.60
2019-04-26T19:00:40.645Z,0.60
2019-04-26T19:03:08.774Z,0.87
2019-04-26T19:05:36.537Z,0.70
2019-04-26T19:08:05.130Z,0.78
2019-04-26T19:10:34.353Z,0.42
2019-04-26T19:13:11.928Z,0.60
2019-04-26T19:15:51.544Z,0.60
2019-04-26T19:18:33.682Z,0.50
2019-04-26T19:21:19.719Z,0.50
2019-04-26T19:23:47.956Z,0.30
2019-04-26T19:26:16.314Z,0.30
2019-04-26T19:28:44.563Z,0.60
2019-04-26T19:31:12.869Z,0.50
2019-04-26T19:33:40.684Z,0.50
2019-04-26T19:36:08.291Z,0.42
2019-04-26T19:38:35.936Z,0.40
2019-04-26T19:41:03.706Z,0.40
2019-04-26T19:43:34.994Z,0.40
2019-04-26T19:46:12.773Z,0.50
2019-04-26T19:49:00.061Z,0.50
2019-04-26T19:51:52.053Z,0.60
2019-04-26T19:54:32.517Z,0.80
2019-04-26T19:57:01.053Z,0.90
2019-04-26T19:59:33.159Z,1.20
2019-04-26T20:01:58.478Z,1.07
2019-04-26T20:04:30.624Z,0.97
2019-04-26T20:06:56.364Z,0.93
2019-04-26T20:09:26.405Z,1.43
2019-04-26T20:11:58.108Z,1.07
2019-04-26T20:14:39.522Z,0.90
2019-04-26T20:16:53.942Z,1.07
2019-04-26T20:19:32.381Z,0.90
2019-04-26T20:21:52.700Z,1.40
2019-04-26T20:24:20.443Z,1.30
2019-04-26T20:26:48.757Z,1.30
2019-04-26T20:29:16.613Z,1.20
2019-04-26T20:32:02.056Z,1.60
2019-04-26T20:34:29.857Z,1.33
2019-04-26T20:36:58.166Z,1.70
2019-04-26T20:39:26.197Z,1.90
2019-04-26T20:42:01.147Z,2.20
2019-04-26T20:44:28.272Z,2.00
2019-04-26T20:46:52.539Z,1.90
2019-04-26T20:49:21.840Z,1.73
2019-04-26T20:51:49.630Z,1.80
2019-04-26T20:54:17.967Z,1.40
2019-04-26T20:56:46.106Z,1.67
2019-04-26T20:59:16.760Z,1.40
2019-04-26T21:01:46.624Z,1.37
2019-04-26T21:04:33.808Z,1.30
2019-04-26T21:06:44.305Z,1.00
2019-04-26T21:09:14.328Z,1.10
2019-04-26T21:14:26.269Z,1.30
2019-04-26T21:16:53.867Z,1.27
2019-04-26T21:19:22.112Z,1.53
2019-04-26T21:21:50.415Z,1.30
2019-04-26T21:24:23.459Z,1.17
2019-04-26T21:27:09.818Z,1.40
2019-04-26T21:29:59.171Z,1.07
2019-04-26T21:32:44.722Z,1.00
2019-04-26T21:35:14.732Z,1.33
2019-04-26T21:37:49.482Z,1.27
2019-04-26T21:40:40.092Z,0.90
2019-04-26T21:43:07.765Z,1.20
2019-04-26T21:45:35.384Z,1.47
2019-04-26T21:48:06.708Z,1.50
2019-04-26T21:50:35.740Z,1.50
2019-04-26T21:53:05.114Z,1.50
2019-04-26T21:55:35.298Z,1.80
2019-04-26T21:58:00.756Z,1.80
2019-04-26T22:00:51.316Z,1.65
2019-04-26T22:03:19.559Z,2.17
2019-04-26T22:05:49.823Z,1.63
2019-04-26T22:08:24.597Z,2.10
2019-04-26T22:10:48.603Z,1.83
2019-04-26T22:13:23.397Z,1.50
2019-04-26T22:16:09.529Z,1.97
2019-04-26T22:18:46.583Z,1.80
2019-04-26T22:21:33.999Z,2.13
2019-04-26T22:24:16.114Z,2.13
2019-04-26T22:26:47.694Z,2.43
2019-04-26T22:29:16.560Z,2.40
2019-04-26T22:31:43.064Z,2.43
2019-04-26T22:34:12.824Z,2.57
2019-04-26T22:36:40.901Z,2.77
2019-04-26T22:39:16.452Z,2.20
2019-04-26T22:41:44.363Z,2.87
2019-04-26T22:44:18.331Z,2.67
2019-04-26T22:47:14.668Z,2.23
2019-04-26T22:49:45.152Z,2.97
2019-04-26T22:52:16.249Z,3.10
2019-04-26T22:54:42.810Z,2.73
2019-04-26T22:57:13.215Z,3.73
2019-04-26T22:59:43.301Z,3.70
2019-04-26T23:02:13.826Z,4.17
2019-04-26T23:04:41.957Z,2.90
2019-04-26T23:07:10.348Z,2.83
2019-04-26T23:09:38.600Z,3.80
2019-04-26T23:12:25.352Z,4.00
2019-04-26T23:15:09.707Z,3.50
2019-04-26T23:17:56.565Z,4.73
2019-04-26T23:20:43.062Z,4.60
2019-04-26T23:23:10.657Z,5.20
2019-04-26T23:25:38.557Z,4.10
2019-04-26T23:28:06.083Z,4.87
2019-04-26T23:30:33.973Z,4.30
2019-04-26T23:33:02.152Z,5.27
2019-04-26T23:35:29.773Z,5.47
2019-04-26T23:38:00.961Z,4.80
2019-04-26T23:40:28.916Z,5.33
2019-04-26T23:42:56.259Z,5.23
2019-04-26T23:45:25.040Z,5.03
2019-04-26T23:47:53.065Z,5.30
2019-04-26T23:50:20.643Z,4.80
2019-04-26T23:52:49.499Z,3.73
2019-04-26T23:55:18.168Z,5.13
